KMSO/MSO METAR and TAF weather

Enter ICAO airport designator
Station Type Date Time Source
KMSO METAR 2019/04/25 01:53 UTC NOAA

KMSO 250153Z 27012KT 10SM CLR 14/M03 A3009 RMK AO2 SLP188 T01391033


Station Type Date Time Source
KMSO Decoded METAR 2019/04/25 01:53 UTC NOAA

MISSOULA INTERNATIONAL AIRPORT , MT, United States (KMSO) 46-55N 114-06W 975M
Apr 24, 2019 - 09:53 PM EDT / 2019.04.25 0153 UTC
Wind: from the W (270 degrees) at 14 MPH (12 KT):0
Visibility: 10 mile(s):0
Sky conditions: clear
Temperature: 57.0 F (13.9 C)
Dew Point: 26.1 F (-3.3 C)
Relative Humidity: 30%
Pressure (altimeter): 30.09 in. Hg (1018 hPa)
ob: KMSO 250153Z 27012KT 10SM CLR 14/M03 A3009 RMK AO2 SLP188 T01391033
cycle: 2

Station Type Date Time Source
KMSO TAF 2019/04/24 18:22 UTC NOAA

TAF KMSO 241720Z 2418/2518 31012G18KT P6SM FEW080
FM250300 34005KT P6SM SKC
FM251200 10004KT P6SM SCT120

Example: see airport list